Time;durP1;ratioP1;P1;durP2;ratioP2;P2;SDS_P1;SDS_P2;PMS_P1;PMS_P2;Temp;Humidity;BMP_temperature;BMP_pressure;BME280_temperature;BME280_humidity;BME280_pressure;Samples;Min_cycle;Max_cycle;Signal;HPM_P1;HPM_P2
2021/08/23 00:02:14;;;;;;;5.70;3.10;;;15.60;99.90;;;;;;5055136;28;20193;-62
2021/08/23 00:04:40;;;;;;;3.30;2.77;;;15.50;99.90;;;;;;5055954;28;20204;-63
2021/08/23 00:07:06;;;;;;;2.53;2.33;;;15.50;99.90;;;;;;5055454;28;20214;-63
2021/08/23 00:09:32;;;;;;;8.37;3.03;;;15.60;99.90;;;;;;5055634;28;20195;-63
2021/08/23 00:11:58;;;;;;;3.20;2.90;;;15.60;99.90;;;;;;5055674;28;20407;-62
2021/08/23 00:14:24;;;;;;;3.07;2.37;;;15.50;99.90;;;;;;5055678;28;20212;-62
2021/08/23 00:16:50;;;;;;;3.67;2.57;;;15.50;99.90;;;;;;5053896;28;20465;-63
2021/08/23 00:19:16;;;;;;;2.63;2.13;;;15.50;99.90;;;;;;5067207;28;20445;-62
2021/08/23 00:21:43;;;;;;;4.00;3.17;;;15.50;99.90;;;;;;5075582;28;20187;-63
2021/08/23 00:24:22;;;;;;;3.80;3.10;;;15.50;99.90;;;;;;5075542;28;20179;-63
2021/08/23 00:26:56;;;;;;;2.57;2.37;;;15.50;99.90;;;;;;5074955;28;20405;-63
2021/08/23 00:29:22;;;;;;;3.30;3.00;;;15.40;99.90;;;;;;5074102;28;20470;-63
2021/08/23 00:31:48;;;;;;;2.13;2.03;;;15.40;99.90;;;;;;5075179;28;20441;-62
2021/08/23 00:34:14;;;;;;;2.60;2.40;;;15.50;99.90;;;;;;5074954;28;20518;-63
2021/08/23 00:36:40;;;;;;;2.20;2.00;;;15.50;99.90;;;;;;5075005;28;20410;-63
2021/08/23 00:39:07;;;;;;;3.70;2.50;;;15.40;99.90;;;;;;5073822;28;20792;-63
2021/08/23 00:41:34;;;;;;;3.10;2.80;;;15.50;99.90;;;;;;5075247;28;20403;-63
2021/08/23 00:44:01;;;;;;;2.40;2.20;;;15.50;99.90;;;;;;5075130;28;20414;-63
2021/08/23 00:46:27;;;;;;;2.40;2.20;;;15.50;99.90;;;;;;5075104;28;20401;-63
2021/08/23 00:48:53;;;;;;;2.63;2.40;;;15.50;99.90;;;;;;5061245;28;20447;-63
2021/08/23 00:51:20;;;;;;;5.83;4.33;;;15.50;99.90;;;;;;5053950;28;20420;-63
2021/08/23 00:53:47;;;;;;;3.53;3.23;;;15.50;99.90;;;;;;5055142;28;20765;-63
2021/08/23 00:56:13;;;;;;;3.10;2.80;;;15.50;99.90;;;;;;5054915;28;20964;-63
2021/08/23 00:58:41;;;;;;;3.90;3.07;;;15.50;99.90;;;;;;5054530;28;20420;-63
2021/08/23 01:01:18;;;;;;;3.00;2.80;;;15.50;99.90;;;;;;5053569;28;20412;-63
2021/08/23 01:03:55;;;;;;;4.00;2.97;;;15.50;99.90;;;;;;5054581;28;20551;-63
2021/08/23 01:06:21;;;;;;;3.27;2.50;;;15.50;99.90;;;;;;5055087;28;20373;-62
2021/08/23 01:08:49;;;;;;;2.80;2.60;;;15.60;99.90;;;;;;5052977;28;20439;-62
2021/08/23 01:11:17;;;;;;;4.50;2.77;;;15.60;99.90;;;;;;5056268;28;20941;-63
2021/08/23 01:13:50;;;;;;;2.70;2.50;;;15.60;99.90;;;;;;5074107;28;20426;-63
2021/08/23 01:16:16;;;;;;;2.03;1.93;;;15.60;99.90;;;;;;5073734;28;20407;-63
2021/08/23 01:18:43;;;;;;;2.90;2.70;;;15.60;99.90;;;;;;5072223;28;20462;-63
2021/08/23 01:21:11;;;;;;;2.70;2.50;;;15.60;99.90;;;;;;5074298;28;20414;-62
2021/08/23 01:23:42;;;;;;;2.60;2.47;;;15.50;99.90;;;;;;5074351;28;20484;-63
2021/08/23 01:26:10;;;;;;;2.90;2.60;;;15.60;99.90;;;;;;5074442;28;20428;-62
2021/08/23 01:28:45;;;;;;;2.73;2.33;;;15.60;99.90;;;;;;5073605;28;20941;-63
2021/08/23 01:31:14;;;;;;;3.43;3.00;;;15.60;99.90;;;;;;5074252;28;20418;-62
2021/08/23 01:33:41;;;;;;;2.60;2.30;;;15.60;99.90;;;;;;5073444;28;20381;-62
2021/08/23 01:36:11;;;;;;;4.40;2.53;;;15.50;99.90;;;;;;5072901;28;20415;-63
2021/08/23 01:38:37;;;;;;;3.03;2.73;;;15.60;99.90;;;;;;5073606;28;20427;-62
2021/08/23 01:41:05;;;;;;;3.20;2.70;;;15.60;99.90;;;;;;5074079;28;20556;-63
2021/08/23 01:43:31;;;;;;;2.70;2.50;;;15.60;99.90;;;;;;5073850;28;20552;-63
2021/08/23 01:45:57;;;;;;;3.30;3.10;;;15.60;99.90;;;;;;5073849;28;20374;-62
2021/08/23 01:48:22;;;;;;;2.60;2.40;;;15.60;99.90;;;;;;5070031;28;20189;-62
2021/08/23 01:50:48;;;;;;;2.27;2.10;;;15.70;99.90;;;;;;5053842;28;20188;-62
2021/08/23 01:53:16;;;;;;;4.07;3.43;;;15.70;99.90;;;;;;5053911;28;20403;-62
2021/08/23 01:55:48;;;;;;;7.00;2.70;;;15.70;99.90;;;;;;5052592;28;20181;-62
2021/08/23 01:58:17;;;;;;;3.00;2.60;;;15.70;99.90;;;;;;5071382;28;20443;-62
2021/08/23 02:00:42;;;;;;;2.63;2.50;;;15.60;99.90;;;;;;5073596;28;20442;-63
2021/08/23 02:03:08;;;;;;;2.50;2.30;;;15.70;99.90;;;;;;5072375;28;20452;-62
2021/08/23 02:05:34;;;;;;;2.20;2.10;;;15.70;99.90;;;;;;5063639;28;20597;-62
2021/08/23 02:08:00;;;;;;;2.73;2.50;;;15.70;99.90;;;;;;5052954;28;20157;-62
2021/08/23 02:10:27;;;;;;;2.33;2.13;;;15.60;99.90;;;;;;5053538;28;20197;-63
2021/08/23 02:12:53;;;;;;;3.03;2.60;;;15.70;99.90;;;;;;5053470;28;20411;-62
2021/08/23 02:15:19;;;;;;;2.20;2.10;;;15.70;99.90;;;;;;5053502;28;20411;-62
2021/08/23 02:17:44;;;;;;;2.97;2.73;;;15.60;99.90;;;;;;5051747;28;20180;-62
2021/08/23 02:20:11;;;;;;;7.50;3.00;;;15.60;99.90;;;;;;5053500;28;20239;-62
2021/08/23 02:22:37;;;;;;;3.30;3.10;;;15.60;99.90;;;;;;5053229;28;20322;-62
2021/08/23 02:25:06;;;;;;;2.13;2.03;;;15.70;99.90;;;;;;5053045;28;20487;-62
2021/08/23 02:27:32;;;;;;;2.87;2.67;;;15.60;99.90;;;;;;5052853;28;20789;-62
2021/08/23 02:29:57;;;;;;;2.83;2.53;;;15.60;99.90;;;;;;5053113;28;20432;-62
2021/08/23 02:32:23;;;;;;;2.10;1.90;;;15.70;99.90;;;;;;5053057;28;20188;-62
2021/08/23 02:34:49;;;;;;;2.53;2.33;;;15.60;99.90;;;;;;5060640;28;20180;-62
2021/08/23 02:37:14;;;;;;;2.17;2.07;;;15.70;99.90;;;;;;5072942;28;20172;-63
2021/08/23 02:39:40;;;;;;;2.60;2.40;;;15.70;99.90;;;;;;5073273;28;20191;-62
2021/08/23 02:42:06;;;;;;;3.03;2.60;;;15.60;99.90;;;;;;5073277;28;20254;-62
2021/08/23 02:44:32;;;;;;;3.10;2.80;;;15.70;99.90;;;;;;5073117;28;20396;-62
2021/08/23 02:46:57;;;;;;;2.50;2.40;;;15.70;99.90;;;;;;5072967;28;20165;-62
2021/08/23 02:49:24;;;;;;;3.10;2.40;;;15.80;99.90;;;;;;5066664;28;20263;-62
2021/08/23 02:51:49;;;;;;;4.80;2.40;;;15.70;99.90;;;;;;5053188;28;20201;-63
2021/08/23 02:54:15;;;;;;;5.00;2.80;;;15.70;99.90;;;;;;5053416;28;20435;-62
2021/08/23 02:56:41;;;;;;;2.67;2.40;;;15.80;99.90;;;;;;5052572;28;20173;-62
2021/08/23 02:59:07;;;;;;;3.00;2.80;;;15.80;99.90;;;;;;5052989;28;20272;-62
2021/08/23 03:01:32;;;;;;;2.90;2.10;;;15.80;99.90;;;;;;5053297;28;20427;-62
2021/08/23 03:03:58;;;;;;;1.93;1.83;;;15.80;99.90;;;;;;5055995;28;20559;-62
2021/08/23 03:06:24;;;;;;;2.23;2.07;;;15.80;99.90;;;;;;5072856;28;20165;-63
2021/08/23 03:08:49;;;;;;;3.20;2.30;;;15.80;99.90;;;;;;5072422;28;20181;-61
2021/08/23 03:11:15;;;;;;;3.30;3.00;;;15.80;99.90;;;;;;5071658;28;20621;-62
2021/08/23 03:13:42;;;;;;;2.13;2.03;;;15.90;99.90;;;;;;5073177;28;20206;-62
2021/08/23 03:16:09;;;;;;;2.00;1.90;;;15.90;99.90;;;;;;5072938;28;20250;-62
2021/08/23 03:18:35;;;;;;;2.90;2.70;;;15.90;99.90;;;;;;5068903;28;20439;-62
2021/08/23 03:21:01;;;;;;;2.37;2.10;;;15.90;99.90;;;;;;5052881;28;20757;-63
2021/08/23 03:23:27;;;;;;;2.20;2.10;;;15.90;99.90;;;;;;5052724;28;20208;-62
2021/08/23 03:25:53;;;;;;;2.30;2.10;;;15.90;99.90;;;;;;5052731;28;20400;-62
2021/08/23 03:28:19;;;;;;;2.80;2.23;;;15.90;99.90;;;;;;5050980;28;20551;-62
2021/08/23 03:30:44;;;;;;;2.30;2.10;;;16.00;99.90;;;;;;5052565;28;20173;-62
2021/08/23 03:33:11;;;;;;;2.37;2.23;;;16.00;99.90;;;;;;5052665;28;20462;-62
2021/08/23 03:35:37;;;;;;;2.00;1.90;;;16.00;99.90;;;;;;5052760;28;20559;-62
2021/08/23 03:38:03;;;;;;;2.20;2.00;;;16.00;99.90;;;;;;5053427;28;20408;-63
2021/08/23 03:40:30;;;;;;;2.27;2.13;;;16.00;99.90;;;;;;5076295;28;20169;-62
2021/08/23 03:42:56;;;;;;;2.17;1.87;;;16.00;99.90;;;;;;5076264;28;20611;-62
2021/08/23 03:45:21;;;;;;;2.50;2.30;;;16.00;99.90;;;;;;5076354;28;20427;-62
2021/08/23 03:47:47;;;;;;;3.43;2.60;;;16.00;99.90;;;;;;5075816;28;20431;-62
2021/08/23 03:50:13;;;;;;;2.47;1.70;;;16.00;99.90;;;;;;5076015;28;20237;-63
2021/08/23 03:52:38;;;;;;;2.43;2.23;;;16.00;99.90;;;;;;5076073;28;20194;-62
2021/08/23 03:55:05;;;;;;;3.40;3.10;;;16.00;99.90;;;;;;5055055;28;20434;-62
2021/08/23 03:57:32;;;;;;;2.40;2.20;;;16.00;99.90;;;;;;5055754;28;20644;-62
2021/08/23 03:59:59;;;;;;;3.20;2.90;;;16.00;99.90;;;;;;5056028;28;20454;-62
2021/08/23 04:02:24;;;;;;;3.27;2.67;;;16.00;99.90;;;;;;5055528;28;20552;-61
2021/08/23 04:04:50;;;;;;;2.57;2.17;;;16.00;99.90;;;;;;5055951;28;20471;-62
2021/08/23 04:07:16;;;;;;;3.87;3.10;;;16.00;99.90;;;;;;5054033;28;20166;-62
2021/08/23 04:09:41;;;;;;;2.00;1.90;;;16.00;99.90;;;;;;5072517;28;20222;-62
2021/08/23 04:12:07;;;;;;;2.63;2.40;;;16.00;99.90;;;;;;5074730;28;20179;-63
2021/08/23 04:14:33;;;;;;;2.60;2.13;;;16.00;99.90;;;;;;5075523;28;20252;-62
2021/08/23 04:16:58;;;;;;;2.80;2.60;;;16.00;99.90;;;;;;5074012;28;20172;-66
2021/08/23 04:19:24;;;;;;;3.00;2.80;;;16.00;99.90;;;;;;5072883;28;20181;-63
2021/08/23 04:21:50;;;;;;;3.40;2.20;;;16.00;99.90;;;;;;5073259;28;20179;-63
2021/08/23 04:24:15;;;;;;;2.57;2.47;;;16.00;99.90;;;;;;5073480;28;20581;-64
2021/08/23 04:26:41;;;;;;;3.13;1.90;;;16.00;99.90;;;;;;5073407;28;20173;-63
2021/08/23 04:29:06;;;;;;;3.50;2.20;;;16.00;99.90;;;;;;5073631;28;20193;-64
2021/08/23 04:31:32;;;;;;;3.67;2.67;;;16.00;99.90;;;;;;5073849;28;20185;-62
2021/08/23 04:33:58;;;;;;;2.30;2.10;;;16.00;99.90;;;;;;5075548;28;20177;-62
2021/08/23 04:36:24;;;;;;;2.43;1.97;;;16.00;99.90;;;;;;5075578;28;20233;-62
2021/08/23 04:38:50;;;;;;;2.60;2.40;;;16.00;99.90;;;;;;5059466;28;20223;-62
2021/08/23 04:41:15;;;;;;;3.00;2.30;;;16.00;99.90;;;;;;5055311;28;20412;-62
2021/08/23 04:43:41;;;;;;;2.50;2.40;;;16.00;99.90;;;;;;5055185;28;20197;-62
2021/08/23 04:46:07;;;;;;;2.50;2.30;;;16.00;99.90;;;;;;5055334;28;20533;-62
2021/08/23 04:48:32;;;;;;;3.03;2.50;;;16.00;99.90;;;;;;5054238;28;20259;-62
2021/08/23 04:50:58;;;;;;;7.50;2.87;;;16.00;99.90;;;;;;5055177;28;20490;-62
2021/08/23 04:53:23;;;;;;;3.10;2.40;;;16.00;99.90;;;;;;5055084;28;20177;-61
2021/08/23 04:55:49;;;;;;;2.60;2.40;;;16.00;99.90;;;;;;5053720;28;20172;-62
2021/08/23 04:58:15;;;;;;;2.60;2.40;;;16.00;99.90;;;;;;5054628;28;20667;-62
2021/08/23 05:00:40;;;;;;;2.87;2.60;;;16.00;99.90;;;;;;5054916;28;20211;-62
2021/08/23 05:03:08;;;;;;;1.93;1.83;;;16.00;99.90;;;;;;5054856;28;20224;-62
2021/08/23 05:05:33;;;;;;;2.63;2.43;;;16.00;99.90;;;;;;5054718;28;20169;-63
2021/08/23 05:07:59;;;;;;;2.97;2.77;;;16.00;99.90;;;;;;5066356;28;20406;-62
2021/08/23 05:10:25;;;;;;;2.23;2.03;;;16.10;99.90;;;;;;5074800;28;20578;-63
2021/08/23 05:12:55;;;;;;;2.50;2.30;;;16.10;99.90;;;;;;5074684;28;20180;-62
2021/08/23 05:15:21;;;;;;;3.83;2.10;;;16.10;99.90;;;;;;5074740;28;20176;-62
2021/08/23 05:17:47;;;;;;;2.43;1.97;;;16.10;99.90;;;;;;5059694;28;20402;-63
2021/08/23 05:20:12;;;;;;;3.03;2.83;;;16.10;99.90;;;;;;5054274;28;20470;-63
2021/08/23 05:22:38;;;;;;;2.43;2.30;;;16.10;99.90;;;;;;5054323;28;20244;-62
2021/08/23 05:25:05;;;;;;;3.50;2.10;;;16.10;99.90;;;;;;5054250;28;20166;-62
2021/08/23 05:27:31;;;;;;;2.67;2.47;;;16.10;99.90;;;;;;5054034;28;20497;-62
2021/08/23 05:30:00;;;;;;;2.30;1.93;;;16.10;99.90;;;;;;5054293;28;20451;-62
2021/08/23 05:32:26;;;;;;;2.73;2.53;;;16.10;99.90;;;;;;5066626;28;20186;-63
2021/08/23 05:34:51;;;;;;;2.80;2.30;;;16.10;99.90;;;;;;5074092;28;20799;-63
2021/08/23 05:37:17;;;;;;;3.23;2.93;;;16.20;99.90;;;;;;5073717;28;20180;-63
2021/08/23 05:39:43;;;;;;;2.97;2.77;;;16.20;99.90;;;;;;5072781;28;20200;-62
2021/08/23 05:42:10;;;;;;;3.20;2.83;;;16.20;99.90;;;;;;5072694;28;20292;-63
2021/08/23 05:44:36;;;;;;;2.73;2.53;;;16.20;99.90;;;;;;5074089;28;20570;-63
2021/08/23 05:47:02;;;;;;;2.77;2.53;;;16.20;99.90;;;;;;5061811;28;20485;-61
2021/08/23 05:49:27;;;;;;;2.63;2.43;;;16.20;99.90;;;;;;5053910;28;20209;-61
2021/08/23 05:51:53;;;;;;;2.80;2.60;;;16.30;99.90;;;;;;5056403;28;20219;-63
2021/08/23 05:54:19;;;;;;;2.87;2.67;;;16.30;99.90;;;;;;5066945;28;20238;-62
2021/08/23 05:56:44;;;;;;;3.40;2.50;;;16.40;99.90;;;;;;5066980;28;20976;-61
2021/08/23 05:59:10;;;;;;;2.47;2.37;;;16.40;99.90;;;;;;5053738;28;20771;-62
2021/08/23 06:01:36;;;;;;;2.90;2.70;;;16.40;99.90;;;;;;5056419;28;20185;-61
2021/08/23 06:04:01;;;;;;;4.67;2.70;;;16.40;99.90;;;;;;5073690;28;20209;-62
2021/08/23 06:06:27;;;;;;;2.63;2.37;;;16.40;99.90;;;;;;5073578;28;20169;-62
2021/08/23 06:08:53;;;;;;;9.17;6.40;;;16.30;99.90;;;;;;5073221;28;20196;-62
2021/08/23 06:11:18;;;;;;;3.50;3.20;;;16.40;99.90;;;;;;5073694;28;20175;-62
2021/08/23 06:13:44;;;;;;;4.53;2.90;;;16.50;99.90;;;;;;5073640;28;20504;-62
2021/08/23 06:16:09;;;;;;;4.47;3.00;;;16.50;99.90;;;;;;5073288;28;20181;-62
2021/08/23 06:18:35;;;;;;;3.20;3.00;;;16.60;99.90;;;;;;5072979;28;20205;-62
2021/08/23 06:21:01;;;;;;;4.93;3.40;;;16.70;99.90;;;;;;5073186;28;20261;-62
2021/08/23 06:23:27;;;;;;;5.00;3.13;;;16.80;99.90;;;;;;5073395;28;20202;-62
2021/08/23 06:25:52;;;;;;;3.40;3.20;;;17.00;99.90;;;;;;5073587;28;20185;-62
2021/08/23 06:28:20;;;;;;;2.20;2.00;;;17.20;99.90;;;;;;5083307;28;20952;-62
2021/08/23 06:30:46;;;;;;;2.50;2.30;;;17.30;99.90;;;;;;5093076;28;20177;-62
2021/08/23 06:33:11;;;;;;;5.43;2.60;;;17.40;99.90;;;;;;5093359;28;20854;-61
2021/08/23 06:35:37;;;;;;;5.10;2.80;;;17.50;99.90;;;;;;5093294;28;20459;-62
2021/08/23 06:38:03;;;;;;;2.93;2.33;;;17.70;99.90;;;;;;5093226;28;20181;-62
2021/08/23 06:40:28;;;;;;;2.57;2.30;;;17.80;99.90;;;;;;5093450;28;20650;-62
2021/08/23 06:42:54;;;;;;;6.37;2.70;;;17.80;99.90;;;;;;5057400;28;20211;-61
2021/08/23 06:45:20;;;;;;;1.93;1.83;;;17.80;99.90;;;;;;5052968;28;20249;-63
2021/08/23 06:47:45;;;;;;;2.50;2.30;;;17.90;99.90;;;;;;5075927;28;20177;-62
2021/08/23 06:50:11;;;;;;;3.20;2.40;;;18.10;99.90;;;;;;5093181;28;20195;-61
2021/08/23 06:52:39;;;;;;;8.20;3.03;;;18.20;99.90;;;;;;5093209;28;20317;-62
2021/08/23 06:55:05;;;;;;;2.20;2.10;;;18.40;99.90;;;;;;5093118;28;20180;-62
2021/08/23 06:57:31;;;;;;;3.67;3.33;;;18.50;99.90;;;;;;5075409;28;20749;-62
2021/08/23 06:59:57;;;;;;;2.03;1.90;;;18.70;99.90;;;;;;5072691;28;20434;-60
2021/08/23 07:02:22;;;;;;;3.37;3.07;;;18.90;99.90;;;;;;5072898;28;20218;-61
2021/08/23 07:04:51;;;;;;;2.47;2.27;;;18.90;99.90;;;;;;5072924;28;20445;-61
2021/08/23 07:07:17;;;;;;;3.40;1.93;;;18.90;99.90;;;;;;5072504;28;20179;-62
2021/08/23 07:09:43;;;;;;;2.10;1.90;;;18.80;99.90;;;;;;5072736;28;20430;-62
2021/08/23 07:12:09;;;;;;;2.00;1.90;;;18.80;99.90;;;;;;5073976;28;20405;-62
2021/08/23 07:14:36;;;;;;;1.90;1.80;;;18.80;99.90;;;;;;5076578;28;20458;-62
2021/08/23 07:17:06;;;;;;;3.90;2.00;;;18.80;99.90;;;;;;5076276;28;20381;-61
2021/08/23 07:19:33;;;;;;;2.80;2.60;;;18.80;99.90;;;;;;5076402;28;20442;-62
2021/08/23 07:21:58;;;;;;;1.90;1.77;;;18.80;99.90;;;;;;5076624;28;20443;-63
2021/08/23 07:24:24;;;;;;;2.60;1.70;;;18.90;99.90;;;;;;5087398;28;20944;-63
2021/08/23 07:26:50;;;;;;;7.50;1.63;;;19.00;99.90;;;;;;5080327;28;20177;-64
2021/08/23 07:29:17;;;;;;;2.40;2.20;;;19.10;99.90;;;;;;5058318;28;20327;-63
2021/08/23 07:31:43;;;;;;;2.80;1.90;;;19.30;99.90;;;;;;5070480;28;20231;-62
2021/08/23 07:34:09;;;;;;;1.97;1.80;;;19.30;99.90;;;;;;5094442;28;20908;-63
2021/08/23 07:36:35;;;;;;;2.30;1.70;;;19.40;99.90;;;;;;5096302;28;20191;-65
2021/08/23 07:39:00;;;;;;;2.53;2.00;;;19.40;99.90;;;;;;5096401;28;20400;-61
2021/08/23 07:41:26;;;;;;;1.97;1.77;;;19.50;99.90;;;;;;5095939;28;20328;-62
2021/08/23 07:43:52;;;;;;;2.20;1.60;;;19.50;99.90;;;;;;5096170;28;20219;-62
2021/08/23 07:46:17;;;;;;;1.97;1.80;;;19.60;99.90;;;;;;5089515;28;20175;-62
2021/08/23 07:48:44;;;;;;;5.03;2.37;;;19.60;99.90;;;;;;5075687;28;20609;-61
2021/08/23 07:51:11;;;;;;;2.63;2.43;;;19.70;99.90;;;;;;5089342;28;20650;-62
2021/08/23 07:53:38;;;;;;;2.10;1.90;;;19.80;99.90;;;;;;5096456;28;20793;-64
2021/08/23 07:56:04;;;;;;;1.77;1.67;;;19.80;99.90;;;;;;5096001;28;20784;-65
2021/08/23 07:58:29;;;;;;;2.03;1.70;;;19.70;99.90;;;;;;5095802;28;20517;-65
2021/08/23 08:00:55;;;;;;;2.73;2.50;;;19.70;99.90;;;;;;5088593;28;20547;-66
2021/08/23 08:03:20;;;;;;;2.37;2.27;;;19.60;99.90;;;;;;5075675;28;20236;-64
2021/08/23 08:05:46;;;;;;;3.50;2.10;;;19.60;99.90;;;;;;5075920;28;20169;-65
2021/08/23 08:08:12;;;;;;;2.10;1.90;;;19.60;99.90;;;;;;5075431;28;20250;-65
2021/08/23 08:10:38;;;;;;;3.30;2.37;;;19.50;99.90;;;;;;5075925;28;20176;-63
2021/08/23 08:13:06;;;;;;;2.57;1.93;;;19.40;99.90;;;;;;5075698;28;20528;-68
2021/08/23 08:15:32;;;;;;;1.83;1.73;;;19.40;99.90;;;;;;5071845;28;20497;-64
2021/08/23 08:17:57;;;;;;;3.07;2.53;;;19.40;99.90;;;;;;5055381;28;20437;-68
2021/08/23 08:20:23;;;;;;;2.30;2.10;;;19.30;99.90;;;;;;5055982;28;20800;-66
2021/08/23 08:22:49;;;;;;;6.73;2.53;;;19.30;99.90;;;;;;5055634;28;20434;-67
2021/08/23 08:25:15;;;;;;;2.23;2.13;;;19.30;99.90;;;;;;5065759;28;20173;-66
2021/08/23 08:27:41;;;;;;;3.47;2.40;;;19.30;99.90;;;;;;5075229;28;20177;-66
2021/08/23 08:30:08;;;;;;;3.20;2.43;;;19.30;99.90;;;;;;5075534;28;20670;-66
2021/08/23 08:32:34;;;;;;;3.17;2.87;;;19.30;99.90;;;;;;5075492;28;20597;-66
2021/08/23 08:35:00;;;;;;;2.93;2.73;;;19.30;99.90;;;;;;5075457;28;20399;-66
2021/08/23 08:37:26;;;;;;;2.77;1.90;;;19.30;99.90;;;;;;5073796;28;20176;-66
2021/08/23 08:39:52;;;;;;;7.23;2.30;;;19.30;99.90;;;;;;5074915;28;20196;-67
2021/08/23 08:42:19;;;;;;;7.70;3.13;;;19.30;99.90;;;;;;5074894;28;20460;-66
2021/08/23 08:44:46;;;;;;;2.87;2.63;;;19.30;99.90;;;;;;5075073;28;20452;-66
2021/08/23 08:47:16;;;;;;;2.13;1.93;;;19.30;99.90;;;;;;5074702;28;20747;-66
2021/08/23 08:49:42;;;;;;;3.00;2.73;;;19.40;99.90;;;;;;5074719;28;20398;-66
2021/08/23 08:52:10;;;;;;;2.60;2.40;;;19.30;99.90;;;;;;5074948;28;20532;-65
2021/08/23 08:54:36;;;;;;;2.47;2.33;;;19.30;99.90;;;;;;5073211;28;20887;-67
2021/08/23 08:57:03;;;;;;;2.40;2.20;;;19.30;99.90;;;;;;5074608;28;20381;-67
2021/08/23 08:59:30;;;;;;;2.93;2.60;;;19.40;99.90;;;;;;5074827;28;20413;-65
2021/08/23 09:01:57;;;;;;;2.70;2.50;;;19.60;99.90;;;;;;5074907;28;20423;-66
2021/08/23 09:04:37;;;;;;;2.17;1.97;;;19.90;99.90;;;;;;5074121;28;20392;-66
2021/08/23 09:07:06;;;;;;;2.67;2.40;;;20.40;99.90;;;;;;5073993;28;20378;-66
2021/08/23 09:09:32;;;;;;;2.40;2.20;;;20.90;99.90;;;;;;5061270;28;20941;-67
2021/08/23 09:11:59;;;;;;;2.07;1.87;;;21.60;99.90;;;;;;5053076;28;20815;-66
2021/08/23 09:14:25;;;;;;;2.80;2.60;;;22.30;99.90;;;;;;5054407;28;20409;-66
2021/08/23 09:16:51;;;;;;;2.00;1.90;;;23.10;99.90;;;;;;5054169;28;20838;-68
2021/08/23 09:19:26;;;;;;;2.60;1.93;;;23.60;99.90;;;;;;5054344;28;20414;-64
2021/08/23 09:22:02;;;;;;;2.57;2.37;;;23.80;99.90;;;;;;5061420;28;20400;-63
2021/08/23 09:24:33;;;;;;;2.07;1.97;;;23.80;99.90;;;;;;5074473;28;20399;-64
2021/08/23 09:27:09;;;;;;;2.10;1.53;;;23.60;99.90;;;;;;5073968;28;20381;-63
2021/08/23 09:29:55;;;;;;;2.53;2.27;;;23.40;99.90;;;;;;5072617;28;20789;-63
2021/08/23 09:32:27;;;;;;;1.80;1.70;;;23.20;99.90;;;;;;5073845;28;20401;-64
2021/08/23 09:34:53;;;;;;;2.83;2.57;;;22.80;99.90;;;;;;5073561;28;20374;-64
2021/08/23 09:37:21;;;;;;;3.20;2.00;;;22.50;99.90;;;;;;5073419;28;20386;-62
2021/08/23 09:39:47;;;;;;;3.10;2.23;;;22.30;99.90;;;;;;5074140;28;20430;-64
2021/08/23 09:42:14;;;;;;;2.40;2.10;;;22.10;99.90;;;;;;5074028;28;20737;-62
2021/08/23 09:44:41;;;;;;;2.03;1.90;;;21.90;99.90;;;;;;5073256;28;20382;-64
2021/08/23 09:47:07;;;;;;;2.10;2.00;;;21.90;99.90;;;;;;5073462;28;20501;-65
2021/08/23 09:49:43;;;;;;;2.23;1.73;;;21.80;99.90;;;;;;5073976;28;20522;-63
2021/08/23 09:52:13;;;;;;;2.03;1.87;;;21.80;99.90;;;;;;5073926;28;20167;-63
2021/08/23 09:54:39;;;;;;;1.50;1.40;;;21.90;99.90;;;;;;5073854;28;20371;-63
2021/08/23 09:57:05;;;;;;;2.60;2.40;;;22.00;99.90;;;;;;5057550;28;20980;-63
2021/08/23 09:59:35;;;;;;;5.67;2.53;;;22.00;99.90;;;;;;5052384;28;20462;-62
2021/08/23 10:02:01;;;;;;;5.83;1.83;;;22.00;99.90;;;;;;5061785;28;20414;-63
2021/08/23 10:04:27;;;;;;;2.00;1.90;;;22.00;99.90;;;;;;5074122;28;20450;-64
2021/08/23 10:06:53;;;;;;;2.30;2.10;;;21.90;99.90;;;;;;5073294;28;20472;-62
2021/08/23 10:09:23;;;;;;;3.80;1.97;;;22.00;99.90;;;;;;5073568;28;20782;-66
2021/08/23 10:11:50;;;;;;;1.67;1.57;;;22.10;99.90;;;;;;5073479;28;20381;-63
2021/08/23 10:14:16;;;;;;;1.43;1.33;;;22.50;99.90;;;;;;5073568;28;20418;-65
2021/08/23 10:16:41;;;;;;;2.13;1.50;;;23.10;99.90;;;;;;5065214;28;20416;-64
2021/08/23 10:19:09;;;;;;;1.47;1.37;;;23.10;99.90;;;;;;5053338;28;20428;-64
2021/08/23 10:21:36;;;;;;;1.43;1.33;;;23.10;99.90;;;;;;5053427;28;20189;-65
2021/08/23 10:24:03;;;;;;;1.40;1.30;;;23.20;99.90;;;;;;5053352;28;20458;-63
2021/08/23 10:26:41;;;;;;;1.23;1.20;;;23.20;99.90;;;;;;5053160;28;20436;-67
2021/08/23 10:29:09;;;;;;;1.70;1.60;;;23.30;99.90;;;;;;5053419;28;20486;-65
2021/08/23 10:31:36;;;;;;;2.10;2.00;;;23.40;99.90;;;;;;5061369;28;20449;-64
2021/08/23 10:34:11;;;;;;;3.13;1.33;;;23.40;99.90;;;;;;5073406;28;20406;-64
2021/08/23 10:36:37;;;;;;;1.73;1.63;;;23.30;99.90;;;;;;5052921;28;20809;-64
2021/08/23 10:39:04;;;;;;;1.80;1.70;;;23.30;99.90;;;;;;5053007;28;20481;-64
2021/08/23 10:41:30;;;;;;;2.97;2.07;;;23.00;99.90;;;;;;5053087;28;20379;-65
2021/08/23 10:43:58;;;;;;;1.87;1.60;;;22.70;99.90;;;;;;5053076;28;20505;-64
2021/08/23 10:46:36;;;;;;;1.57;1.47;;;22.70;99.90;;;;;;5054113;28;20169;-64
2021/08/23 10:49:15;;;;;;;2.10;1.97;;;22.80;99.90;;;;;;5059354;28;20402;-64
2021/08/23 10:51:58;;;;;;;2.43;1.30;;;22.80;99.90;;;;;;5059703;28;20481;-60
2021/08/23 10:54:26;;;;;;;2.20;1.40;;;22.80;99.90;;;;;;5060192;28;20396;-63
2021/08/23 10:57:13;;;;;;;4.07;1.40;;;23.50;99.90;;;;;;5059233;28;20379;-64
2021/08/23 10:59:48;;;;;;;1.40;1.30;;;24.30;99.90;;;;;;5061381;28;20535;-63
2021/08/23 11:02:30;;;;;;;1.70;1.60;;;24.60;99.90;;;;;;5079379;28;20962;-63
2021/08/23 11:05:14;;;;;;;1.80;1.70;;;24.80;99.90;;;;;;5079724;28;20823;-63
2021/08/23 11:07:42;;;;;;;1.53;1.40;;;24.70;99.90;;;;;;5079213;28;20404;-64
2021/08/23 11:10:17;;;;;;;1.50;1.40;;;24.50;99.90;;;;;;5079558;28;20425;-64
2021/08/23 11:12:48;;;;;;;1.60;1.50;;;24.30;99.90;;;;;;5079264;28;20414;-63
2021/08/23 11:15:27;;;;;;;1.40;1.30;;;24.20;99.90;;;;;;5070194;28;20396;-63
2021/08/23 11:17:55;;;;;;;1.20;1.10;;;24.20;99.90;;;;;;5059039;28;20375;-63
2021/08/23 11:20:28;;;;;;;1.70;1.60;;;24.20;99.90;;;;;;5059419;28;20390;-63
2021/08/23 11:22:58;;;;;;;1.40;1.30;;;24.20;99.90;;;;;;5059367;28;20484;-63
2021/08/23 11:25:33;;;;;;;1.60;1.37;;;24.00;99.90;;;;;;5059455;28;20737;-63
2021/08/23 11:28:00;;;;;;;1.10;1.00;;;24.00;99.90;;;;;;5058802;28;20423;-64
2021/08/23 11:30:35;;;;;;;1.20;1.10;;;24.00;99.90;;;;;;5071806;28;20553;-65
2021/08/23 11:33:01;;;;;;;1.30;1.20;;;24.10;99.90;;;;;;5060185;28;20394;-66
2021/08/23 11:35:26;;;;;;;1.40;1.00;;;24.10;99.90;;;;;;5059188;28;20483;-63
2021/08/23 11:37:58;;;;;;;1.40;1.30;;;24.20;99.90;;;;;;5074014;28;20385;-64
2021/08/23 11:40:23;;;;;;;1.03;1.00;;;24.30;99.90;;;;;;5079348;28;20655;-63
2021/08/23 11:42:54;;;;;;;1.50;1.40;;;24.20;99.90;;;;;;5079222;28;20487;-62
2021/08/23 11:45:21;;;;;;;1.20;1.10;;;24.10;99.90;;;;;;5079564;28;20259;-62
2021/08/23 11:47:49;;;;;;;1.33;1.20;;;23.90;99.90;;;;;;5079090;28;20735;-63
2021/08/23 11:50:18;;;;;;;1.30;1.20;;;23.80;99.90;;;;;;5074982;28;20416;-63
2021/08/23 11:52:44;;;;;;;2.40;1.10;;;23.60;99.90;;;;;;5060156;28;20419;-63
2021/08/23 11:55:09;;;;;;;1.27;1.17;;;23.60;99.90;;;;;;5057774;28;20383;-62
2021/08/23 11:57:36;;;;;;;1.47;0.90;;;23.70;99.90;;;;;;5058605;28;20408;-61
2021/08/23 12:00:05;;;;;;;1.07;1.00;;;23.80;99.90;;;;;;5054752;28;20208;-61
2021/08/23 12:02:37;;;;;;;1.13;1.07;;;24.00;99.90;;;;;;5055738;28;20458;-61
2021/08/23 12:05:12;;;;;;;1.37;1.27;;;24.00;99.90;;;;;;5061662;28;20428;-62
2021/08/23 12:07:45;;;;;;;1.30;1.20;;;24.20;99.90;;;;;;5075406;28;20468;-62
2021/08/23 12:10:27;;;;;;;2.00;1.83;;;24.20;99.90;;;;;;5075861;28;20439;-63
2021/08/23 12:13:14;;;;;;;1.30;1.20;;;24.10;99.90;;;;;;5074409;28;20378;-62
2021/08/23 12:15:53;;;;;;;1.63;1.27;;;23.90;99.90;;;;;;5075671;28;20423;-62
2021/08/23 12:18:39;;;;;;;1.20;1.20;;;23.60;99.90;;;;;;5075344;28;20394;-62
2021/08/23 12:21:19;;;;;;;1.77;1.67;;;23.50;99.90;;;;;;5059261;28;20763;-62
2021/08/23 12:23:45;;;;;;;1.50;1.40;;;23.40;99.90;;;;;;5055451;28;20449;-61
2021/08/23 12:26:13;;;;;;;2.17;1.97;;;23.40;99.90;;;;;;5055319;28;20413;-62
2021/08/23 12:28:58;;;;;;;1.70;1.60;;;23.40;99.90;;;;;;5054770;28;20189;-63
2021/08/23 12:31:23;;;;;;;1.70;1.60;;;23.30;99.90;;;;;;5054913;28;20904;-62
2021/08/23 12:33:50;;;;;;;3.63;1.57;;;23.20;99.90;;;;;;5054832;28;20382;-63
2021/08/23 12:36:16;;;;;;;1.47;1.37;;;23.20;99.90;;;;;;5074153;28;20229;-61
2021/08/23 12:38:44;;;;;;;1.50;1.37;;;23.20;99.90;;;;;;5074504;28;20894;-62
2021/08/23 12:41:10;;;;;;;1.13;1.07;;;23.30;99.90;;;;;;5074888;28;20487;-63
2021/08/23 12:43:37;;;;;;;1.30;1.20;;;23.50;99.90;;;;;;5074967;28;20450;-62
2021/08/23 12:46:03;;;;;;;1.17;1.17;;;23.60;99.90;;;;;;5075366;28;20749;-62
2021/08/23 12:48:30;;;;;;;1.53;1.43;;;23.70;99.90;;;;;;5074681;28;20431;-61
2021/08/23 12:50:57;;;;;;;1.33;1.23;;;23.80;99.90;;;;;;5056036;28;20418;-62